createdAt,value
2023-01-19T00:01:43.803Z,95375.88
2023-01-19T00:04:12.042Z,95424.38
2023-01-19T00:06:41.877Z,95428.69
2023-01-19T00:09:10.147Z,95422.22
2023-01-19T00:11:38.382Z,95419.88
2023-01-19T00:14:06.864Z,95448.53
2023-01-19T00:16:35.113Z,95368.13
2023-01-19T00:19:03.405Z,95444.19
2023-01-19T00:21:31.552Z,95425.41
2023-01-19T00:24:01.132Z,95452.31
2023-01-19T00:26:29.312Z,95421.09
2023-01-19T00:28:57.953Z,95463.81
2023-01-19T00:31:26.241Z,95408.38
2023-01-19T00:33:54.515Z,95449.03
2023-01-19T00:36:22.684Z,95447.28
2023-01-19T00:38:50.865Z,95461.44
2023-01-19T00:41:40.801Z,95418.63
2023-01-19T00:44:08.477Z,95474.66
2023-01-19T00:46:36.719Z,95464.28
2023-01-19T00:49:04.947Z,95442.78
2023-01-19T00:51:33.364Z,95441.06
2023-01-19T00:54:04.865Z,95461.66
2023-01-19T00:56:35.378Z,95457.41
2023-01-19T00:59:04.075Z,95454.84
2023-01-19T01:01:45.429Z,95503.00
2023-01-19T01:04:19.436Z,95499.72
2023-01-19T01:06:50.613Z,95457.31
2023-01-19T01:09:18.811Z,95491.28
2023-01-19T01:11:48.347Z,95442.72
2023-01-19T01:14:17.367Z,95521.91
2023-01-19T01:16:45.710Z,95456.28
2023-01-19T01:19:13.950Z,95495.59
2023-01-19T01:21:42.239Z,95447.50
2023-01-19T01:24:12.739Z,95435.59
2023-01-19T01:26:40.931Z,95440.41
2023-01-19T01:29:10.539Z,95503.13
2023-01-19T01:31:38.768Z,95476.69
2023-01-19T01:34:07.261Z,95451.47
2023-01-19T01:36:36.089Z,95489.50
2023-01-19T01:39:05.023Z,95535.75
2023-01-19T01:41:33.816Z,95328.91
2023-01-19T01:44:06.238Z,95449.59
2023-01-19T01:46:35.813Z,95492.78
2023-01-19T01:49:09.268Z,95500.97
2023-01-19T01:51:42.180Z,95497.56
2023-01-19T01:54:19.406Z,95503.88
2023-01-19T01:56:49.904Z,95498.53
2023-01-19T01:59:29.825Z,95514.59
2023-01-19T02:02:21.852Z,95600.91
2023-01-19T02:04:55.243Z,95498.28
2023-01-19T02:07:55.389Z,95455.81
2023-01-19T02:10:41.179Z,95476.91
2023-01-19T02:13:18.547Z,95475.06
2023-01-19T02:15:46.877Z,95456.91
2023-01-19T02:18:16.781Z,95481.59
2023-01-19T02:21:00.676Z,95454.94
2023-01-19T02:23:40.852Z,95485.09
2023-01-19T02:26:12.121Z,95495.72
2023-01-19T02:28:44.640Z,95459.84
2023-01-19T02:31:15.167Z,95502.06
2023-01-19T02:33:43.917Z,95477.78
2023-01-19T02:36:16.819Z,95477.19
2023-01-19T02:38:48.248Z,95507.34
2023-01-19T02:41:21.108Z,95537.88
2023-01-19T02:43:50.424Z,95464.91
2023-01-19T02:46:18.832Z,95542.38
2023-01-19T02:48:47.049Z,95515.19
2023-01-19T02:51:18.814Z,95535.50
2023-01-19T02:54:20.668Z,95523.63
2023-01-19T02:57:28.185Z,95519.75
2023-01-19T03:00:13.793Z,95490.44
2023-01-19T03:02:56.911Z,95489.53
2023-01-19T03:05:44.824Z,95518.53
2023-01-19T03:08:23.131Z,95506.31
2023-01-19T03:10:59.092Z,95573.00
2023-01-19T03:13:35.587Z,95531.72
2023-01-19T03:16:12.611Z,95498.28
2023-01-19T03:18:45.020Z,95428.84
2023-01-19T03:21:15.588Z,95506.09
2023-01-19T03:23:47.693Z,95525.53
2023-01-19T03:26:26.147Z,95525.50
2023-01-19T03:28:57.598Z,95542.84
2023-01-19T03:31:28.821Z,95420.81
2023-01-19T03:34:00.866Z,95507.69
2023-01-19T03:36:34.055Z,95546.94
2023-01-19T03:39:05.683Z,95542.66
2023-01-19T03:41:37.550Z,95510.25
2023-01-19T03:44:06.952Z,95510.97
2023-01-19T03:46:35.854Z,95531.09
2023-01-19T03:49:04.049Z,95474.31
2023-01-19T03:51:36.970Z,95498.84
2023-01-19T03:54:05.622Z,95520.53
2023-01-19T03:56:35.247Z,95507.53
2023-01-19T03:59:05.407Z,95520.41
2023-01-19T04:01:33.934Z,95543.66
2023-01-19T04:04:02.168Z,95582.75
2023-01-19T04:06:30.520Z,95513.06
2023-01-19T04:08:58.692Z,95575.53
2023-01-19T04:11:26.982Z,95507.81
2023-01-19T04:13:59.790Z,95537.81
2023-01-19T04:16:29.100Z,95512.78
2023-01-19T04:18:57.322Z,95507.75
2023-01-19T04:21:25.578Z,95509.41
2023-01-19T04:23:54.175Z,95570.56
2023-01-19T04:26:22.424Z,95544.34
2023-01-19T04:28:50.558Z,95549.13
2023-01-19T04:31:20.265Z,95524.47
2023-01-19T04:33:48.446Z,95520.97
2023-01-19T04:36:16.786Z,95530.63
2023-01-19T04:38:46.603Z,95530.63
2023-01-19T04:41:15.387Z,95562.88
2023-01-19T04:43:43.540Z,95577.50
2023-01-19T04:46:11.787Z,95476.97
2023-01-19T04:48:42.203Z,95525.19
2023-01-19T04:51:10.460Z,95534.06
2023-01-19T04:53:38.650Z,95511.63
2023-01-19T04:56:07.456Z,95535.97
2023-01-19T04:58:35.992Z,95601.50
2023-01-19T05:01:09.536Z,95554.84
2023-01-19T05:03:37.835Z,95527.22
2023-01-19T05:06:09.781Z,95510.78
2023-01-19T05:08:37.939Z,95557.97
2023-01-19T05:11:06.481Z,95548.75
2023-01-19T05:13:35.139Z,95559.44
2023-01-19T05:16:04.007Z,95552.03
2023-01-19T05:18:35.985Z,95510.50
2023-01-19T05:21:04.200Z,95535.41
2023-01-19T05:23:34.142Z,95501.94
2023-01-19T05:26:05.260Z,95556.75
2023-01-19T05:28:34.359Z,95506.16
2023-01-19T05:31:02.655Z,95553.06
2023-01-19T05:33:30.953Z,95548.34
2023-01-19T05:35:59.144Z,95547.28
2023-01-19T05:38:35.359Z,95543.19
2023-01-19T05:41:05.620Z,95503.38
2023-01-19T05:43:33.828Z,95582.59
2023-01-19T05:46:08.267Z,95619.09
2023-01-19T05:48:36.841Z,95552.75
2023-01-19T05:51:05.761Z,95570.34
2023-01-19T05:53:33.892Z,95574.25
2023-01-19T05:56:05.589Z,95644.22
2023-01-19T05:58:34.460Z,95631.97
2023-01-19T06:01:05.481Z,95632.06
2023-01-19T06:03:34.197Z,95592.16
2023-01-19T06:06:02.749Z,95520.03
2023-01-19T06:08:31.400Z,95606.66
2023-01-19T06:10:59.597Z,95562.44
2023-01-19T06:13:29.138Z,95568.09
2023-01-19T06:16:01.155Z,95530.75
2023-01-19T06:18:29.876Z,95519.53
2023-01-19T06:20:59.535Z,95598.44
2023-01-19T06:23:28.211Z,95610.25
2023-01-19T06:25:56.733Z,95616.94
2023-01-19T06:28:25.524Z,95580.00
2023-01-19T06:30:57.050Z,95620.75
2023-01-19T06:33:26.244Z,95609.22
2023-01-19T06:35:54.763Z,95534.31
2023-01-19T06:38:23.557Z,95639.06
2023-01-19T06:40:58.522Z,95576.91
2023-01-19T06:43:27.753Z,95610.22
2023-01-19T06:45:57.548Z,95532.13
2023-01-19T06:48:25.862Z,95585.47
2023-01-19T06:50:54.172Z,95602.63
2023-01-19T06:53:22.513Z,95619.31
2023-01-19T06:55:50.713Z,95618.75
2023-01-19T06:58:19.071Z,95631.13
2023-01-19T07:00:47.268Z,95618.25
2023-01-19T07:03:21.805Z,95633.16
2023-01-19T07:05:53.655Z,95634.28
2023-01-19T07:08:21.892Z,95667.03
2023-01-19T07:11:25.392Z,95670.03
2023-01-19T07:13:40.643Z,95609.19
2023-01-19T07:16:11.248Z,95649.13
2023-01-19T07:18:42.080Z,95628.84
2023-01-19T07:21:10.857Z,95635.31
2023-01-19T07:23:39.049Z,95624.50
2023-01-19T07:26:07.656Z,95662.25
2023-01-19T07:28:36.992Z,95585.34
2023-01-19T07:31:06.337Z,95633.22
2023-01-19T07:33:34.516Z,95606.00
2023-01-19T07:36:04.353Z,95619.13
2023-01-19T07:38:32.683Z,95640.41
2023-01-19T07:41:06.186Z,95576.09
2023-01-19T07:43:34.584Z,95673.34
2023-01-19T07:46:06.878Z,95636.91
2023-01-19T07:48:35.567Z,95671.09
2023-01-19T07:51:10.403Z,95630.03
2023-01-19T07:53:41.807Z,95645.63
2023-01-19T07:56:10.386Z,95641.16
2023-01-19T07:58:38.636Z,95637.31
2023-01-19T08:01:08.793Z,95672.91
2023-01-19T08:03:37.128Z,95615.72
2023-01-19T08:06:07.765Z,95646.59
2023-01-19T08:08:36.203Z,95647.97
2023-01-19T08:11:04.725Z,95688.22
2023-01-19T08:13:32.885Z,95669.19
2023-01-19T08:16:01.132Z,95692.66
2023-01-19T08:18:29.308Z,95602.63
2023-01-19T08:20:59.829Z,95645.22
2023-01-19T08:23:29.594Z,95482.34
2023-01-19T08:25:58.076Z,95641.31
2023-01-19T08:28:26.493Z,95666.31
2023-01-19T08:30:55.493Z,95660.75
2023-01-19T08:33:25.337Z,95610.88
2023-01-19T08:35:55.265Z,95615.34
2023-01-19T08:38:24.758Z,95636.28
2023-01-19T08:40:54.413Z,95655.06
2023-01-19T08:43:22.740Z,95657.66
2023-01-19T08:45:53.530Z,95660.97
2023-01-19T08:48:23.622Z,95662.38
2023-01-19T08:50:53.690Z,95679.88
2023-01-19T08:53:24.196Z,95631.44
2023-01-19T08:55:59.829Z,95633.72
2023-01-19T08:58:28.659Z,95662.22
2023-01-19T09:00:57.247Z,95658.16
2023-01-19T09:03:25.481Z,95587.59
2023-01-19T09:05:54.983Z,95658.72
2023-01-19T09:08:23.508Z,95614.91
2023-01-19T09:10:54.111Z,95700.69
2023-01-19T09:13:22.288Z,95686.94
2023-01-19T09:15:50.927Z,95593.63
2023-01-19T09:18:21.679Z,95682.78
2023-01-19T09:20:51.665Z,95629.94
2023-01-19T09:23:22.805Z,95801.88
2023-01-19T09:26:00.582Z,95773.94
2023-01-19T09:28:29.843Z,95698.03
2023-01-19T09:30:58.551Z,95700.81
2023-01-19T09:33:26.815Z,95711.16
2023-01-19T09:35:54.995Z,95664.94
2023-01-19T09:38:24.042Z,95658.81
2023-01-19T09:40:55.480Z,95649.28
2023-01-19T09:43:39.140Z,95605.84
2023-01-19T09:46:13.527Z,95689.00
2023-01-19T09:48:47.400Z,95727.91
2023-01-19T09:51:20.126Z,95658.81
2023-01-19T09:53:58.798Z,95726.28
2023-01-19T09:56:29.351Z,95681.38
2023-01-19T09:59:00.132Z,95716.59
2023-01-19T10:01:39.423Z,95723.31
2023-01-19T10:04:29.514Z,95646.63
2023-01-19T10:07:09.066Z,95700.91
2023-01-19T10:09:50.506Z,95621.31
2023-01-19T10:12:33.524Z,95700.84
2023-01-19T10:15:15.584Z,95662.47
2023-01-19T10:18:03.533Z,95713.09
2023-01-19T10:20:41.552Z,95711.44
2023-01-19T10:23:34.181Z,95694.44
2023-01-19T10:26:08.679Z,95675.53
2023-01-19T10:28:38.093Z,95707.47
2023-01-19T10:31:09.634Z,95681.84
2023-01-19T10:33:39.650Z,95717.44
2023-01-19T10:36:21.359Z,95656.50
2023-01-19T10:38:49.962Z,95716.63
2023-01-19T10:41:22.288Z,95618.94
2023-01-19T10:43:51.174Z,95680.94
2023-01-19T10:46:26.947Z,95623.84
2023-01-19T10:48:56.365Z,95660.72
2023-01-19T10:51:24.910Z,95645.38
2023-01-19T10:54:02.168Z,95709.34
2023-01-19T10:56:35.202Z,95673.41
2023-01-19T10:59:06.603Z,95627.88
2023-01-19T11:02:00.894Z,95640.00
2023-01-19T11:04:31.134Z,95676.38
2023-01-19T11:07:16.207Z,95655.72
2023-01-19T11:09:44.523Z,95663.53
2023-01-19T11:12:21.485Z,95627.22
2023-01-19T11:14:52.298Z,95664.88
2023-01-19T11:17:25.135Z,95683.78
2023-01-19T11:20:02.490Z,95575.81
2023-01-19T11:22:33.242Z,95611.00
2023-01-19T11:25:08.542Z,95699.84
2023-01-19T11:27:38.379Z,95698.00
2023-01-19T11:30:18.948Z,95649.06
2023-01-19T11:32:49.290Z,95661.56
2023-01-19T11:35:37.028Z,95620.06
2023-01-19T11:38:19.198Z,95694.09
2023-01-19T11:40:57.280Z,95700.09
2023-01-19T11:43:43.297Z,95687.19
2023-01-19T11:46:17.647Z,95617.16
2023-01-19T11:48:56.540Z,95671.91
2023-01-19T11:51:29.569Z,95630.72
2023-01-19T11:53:58.037Z,95644.56
2023-01-19T11:56:30.430Z,95562.84
2023-01-19T11:58:58.659Z,95660.66
2023-01-19T12:01:31.519Z,95660.41
2023-01-19T12:04:05.519Z,95669.09
2023-01-19T12:06:37.036Z,95715.06
2023-01-19T12:09:14.080Z,95558.13
2023-01-19T12:11:50.286Z,95688.84
2023-01-19T12:14:27.056Z,95667.78
2023-01-19T12:16:59.883Z,95614.34
2023-01-19T12:19:41.116Z,95637.34
2023-01-19T12:22:14.524Z,95679.66
2023-01-19T12:24:49.248Z,95564.25
2023-01-19T12:27:31.946Z,95624.69
2023-01-19T12:30:00.462Z,95701.97
2023-01-19T12:32:36.781Z,95694.25
2023-01-19T12:35:07.626Z,95653.09
2023-01-19T12:37:40.706Z,95656.66
2023-01-19T12:40:25.574Z,95664.38
2023-01-19T12:43:00.943Z,95674.28
2023-01-19T12:45:34.972Z,95623.97
2023-01-19T12:48:05.063Z,95684.16
2023-01-19T12:50:38.666Z,95692.75
2023-01-19T12:53:20.703Z,95686.53
2023-01-19T12:56:00.180Z,95675.94
2023-01-19T12:58:28.664Z,95691.00
2023-01-19T13:01:16.634Z,95704.59
2023-01-19T13:04:26.691Z,95662.78
2023-01-19T13:07:18.054Z,95675.47
2023-01-19T13:09:46.257Z,95599.16
2023-01-19T13:12:23.063Z,95690.47
2023-01-19T13:14:51.751Z,95648.63
2023-01-19T13:17:33.538Z,95641.59
2023-01-19T13:20:19.819Z,95681.22
2023-01-19T13:23:19.768Z,95643.50
2023-01-19T13:26:03.847Z,95679.91
2023-01-19T13:28:39.186Z,95575.47
2023-01-19T13:31:09.939Z,95666.06
2023-01-19T13:33:50.013Z,95685.38
2023-01-19T13:36:26.226Z,95632.59
2023-01-19T13:38:57.570Z,95728.34
2023-01-19T13:41:29.724Z,95670.34
2023-01-19T13:44:03.438Z,95673.97
2023-01-19T13:46:33.682Z,95667.97
2023-01-19T13:49:12.637Z,95677.13
2023-01-19T13:51:40.846Z,95670.56
2023-01-19T13:54:17.916Z,95718.28
2023-01-19T13:56:50.143Z,95703.94
2023-01-19T13:59:18.424Z,95698.69
2023-01-19T14:01:49.202Z,95701.59
2023-01-19T14:04:31.934Z,95683.03
2023-01-19T14:07:03.607Z,95711.22
2023-01-19T14:09:33.621Z,95689.28
2023-01-19T14:12:14.001Z,95680.94
2023-01-19T14:14:43.332Z,95714.41
2023-01-19T14:17:27.879Z,95711.72
2023-01-19T14:19:57.889Z,95670.56
2023-01-19T14:22:44.931Z,95710.50
2023-01-19T14:25:32.333Z,95696.41
2023-01-19T14:28:39.536Z,95699.81
2023-01-19T14:31:22.029Z,95648.50
2023-01-19T14:33:53.705Z,95555.47
2023-01-19T14:36:33.228Z,95687.00
2023-01-19T14:39:02.977Z,95698.69
2023-01-19T14:41:38.935Z,95671.41
2023-01-19T14:44:10.808Z,95697.59
2023-01-19T14:46:45.773Z,95709.47
2023-01-19T14:49:22.579Z,95680.94
2023-01-19T14:51:51.201Z,95662.22
2023-01-19T14:54:29.419Z,95677.84
2023-01-19T14:56:58.893Z,95704.06
2023-01-19T14:59:27.182Z,95610.38
2023-01-19T15:01:55.408Z,95717.66
2023-01-19T15:04:25.395Z,95698.81
2023-01-19T15:06:53.713Z,95691.38
2023-01-19T15:09:21.941Z,95675.13
2023-01-19T15:11:51.433Z,95688.63
2023-01-19T15:14:22.504Z,95698.28
2023-01-19T15:16:51.242Z,95721.09
2023-01-19T15:19:19.584Z,95691.75
2023-01-19T15:21:47.807Z,95709.59
2023-01-19T15:24:17.930Z,95716.66
2023-01-19T15:26:46.603Z,95666.59
2023-01-19T15:29:27.090Z,95612.84
2023-01-19T15:31:55.331Z,95680.25
2023-01-19T15:34:23.527Z,95693.16
2023-01-19T15:36:51.720Z,95684.25
2023-01-19T15:39:20.457Z,95668.50
2023-01-19T15:41:49.441Z,95677.66
2023-01-19T15:44:34.063Z,95698.09
2023-01-19T15:47:02.221Z,95659.78
2023-01-19T15:49:31.176Z,95663.81
2023-01-19T15:51:59.344Z,95656.84
2023-01-19T15:54:27.566Z,95764.28
2023-01-19T15:56:55.743Z,95669.91
2023-01-19T15:59:24.063Z,95652.41
2023-01-19T16:01:53.727Z,95654.75
2023-01-19T16:04:21.990Z,95688.91
2023-01-19T16:06:50.771Z,95698.78
2023-01-19T16:09:20.121Z,95690.56
2023-01-19T16:11:48.343Z,95669.06
2023-01-19T16:14:17.558Z,95694.09
2023-01-19T16:16:46.185Z,95701.13
2023-01-19T16:19:16.826Z,95669.66
2023-01-19T16:21:44.989Z,95721.31
2023-01-19T16:24:13.221Z,95701.59
2023-01-19T16:26:41.523Z,95706.53
2023-01-19T16:29:10.960Z,95762.88
2023-01-19T16:31:41.014Z,95675.06
2023-01-19T16:34:09.886Z,95754.31
2023-01-19T16:36:41.378Z,95729.97
2023-01-19T16:39:13.476Z,95742.47
2023-01-19T16:41:42.927Z,95675.28
2023-01-19T16:44:12.594Z,95681.88
2023-01-19T16:46:43.786Z,95732.94
2023-01-19T16:49:16.182Z,95700.44
2023-01-19T16:51:46.105Z,95691.50
2023-01-19T16:54:15.667Z,95718.25
2023-01-19T16:56:44.407Z,95751.53
2023-01-19T16:59:14.024Z,95755.44
2023-01-19T17:01:44.750Z,95725.69
2023-01-19T17:04:13.162Z,95698.31
2023-01-19T17:06:42.292Z,95766.66
2023-01-19T17:09:11.817Z,95704.41
2023-01-19T17:11:41.208Z,95642.19
2023-01-19T17:14:12.570Z,95723.78
2023-01-19T17:16:40.869Z,95687.38
2023-01-19T17:19:09.877Z,95708.41
2023-01-19T17:21:38.037Z,95739.88
2023-01-19T17:24:07.030Z,95746.78
2023-01-19T17:26:36.538Z,95747.25
2023-01-19T17:29:08.278Z,95704.41
2023-01-19T17:31:37.418Z,95753.75
2023-01-19T17:34:05.995Z,95666.97
2023-01-19T17:36:34.915Z,95741.97
2023-01-19T17:39:07.701Z,95751.63
2023-01-19T17:41:37.431Z,95723.44
2023-01-19T17:44:07.246Z,95687.28
2023-01-19T17:46:38.630Z,95711.22
2023-01-19T17:49:08.505Z,95712.41
2023-01-19T17:51:37.039Z,95730.72
2023-01-19T17:54:05.347Z,95753.59
2023-01-19T17:56:38.629Z,95730.00
2023-01-19T17:59:08.184Z,95716.13
2023-01-19T18:01:40.318Z,95601.69
2023-01-19T18:04:09.883Z,95723.41
2023-01-19T18:06:38.526Z,95743.63
2023-01-19T18:09:07.460Z,95746.88
2023-01-19T18:11:37.260Z,95750.88
2023-01-19T18:14:06.643Z,95749.97
2023-01-19T18:16:35.863Z,95750.44
2023-01-19T18:19:04.538Z,95746.41
2023-01-19T18:21:32.748Z,95750.16
2023-01-19T18:24:03.637Z,95697.59
2023-01-19T18:26:33.086Z,95765.31
2023-01-19T18:29:02.809Z,95760.25
2023-01-19T18:31:31.417Z,95754.16
2023-01-19T18:33:59.637Z,95753.69
2023-01-19T18:36:28.153Z,95711.91
2023-01-19T18:38:56.445Z,95751.31
2023-01-19T18:41:24.757Z,95742.41
2023-01-19T18:43:54.524Z,95768.97
2023-01-19T18:46:24.286Z,95753.19
2023-01-19T18:48:53.023Z,95716.44
2023-01-19T18:51:21.561Z,95746.84
2023-01-19T18:53:50.328Z,95739.84
2023-01-19T18:56:18.669Z,95738.66
2023-01-19T18:58:47.164Z,95747.50
2023-01-19T19:01:23.842Z,95731.63
2023-01-19T19:03:58.242Z,95749.47
2023-01-19T19:06:27.523Z,95733.22
2023-01-19T19:08:59.112Z,95783.28
2023-01-19T19:11:28.246Z,95744.53
2023-01-19T19:13:58.787Z,95766.13
2023-01-19T19:16:29.554Z,95728.34
2023-01-19T19:18:58.182Z,95740.78
2023-01-19T19:21:26.385Z,95728.94
2023-01-19T19:23:55.879Z,95655.34
2023-01-19T19:26:26.123Z,95750.44
2023-01-19T19:28:54.385Z,95748.41
2023-01-19T19:31:26.036Z,95719.81
2023-01-19T19:33:58.736Z,95710.50
2023-01-19T19:36:28.560Z,95736.34
2023-01-19T19:38:56.725Z,95694.56
2023-01-19T19:41:27.779Z,95611.16
2023-01-19T19:43:56.637Z,95734.22
2023-01-19T19:46:25.765Z,95781.44
2023-01-19T19:48:55.861Z,95717.50
2023-01-19T19:51:27.346Z,95766.84
2023-01-19T19:53:57.346Z,95743.56
2023-01-19T19:56:31.801Z,95776.91
2023-01-19T19:59:00.970Z,95659.31
2023-01-19T20:01:33.456Z,95778.66
2023-01-19T20:04:08.955Z,95753.22
2023-01-19T20:06:39.748Z,95740.31
2023-01-19T20:09:10.719Z,95730.06
2023-01-19T20:11:39.200Z,95458.63
2023-01-19T20:14:08.844Z,95777.50
2023-01-19T20:16:37.839Z,95747.69
2023-01-19T20:19:07.796Z,95672.06
2023-01-19T20:21:38.712Z,95774.34
2023-01-19T20:24:09.724Z,95759.09
2023-01-19T20:26:43.026Z,95766.41
2023-01-19T20:29:12.108Z,95772.28
2023-01-19T20:31:44.255Z,95726.94
2023-01-19T20:34:17.289Z,95758.28
2023-01-19T20:36:49.514Z,95753.47
2023-01-19T20:39:18.286Z,95779.06
2023-01-19T20:41:48.500Z,95772.03
2023-01-19T20:44:19.954Z,95732.72
2023-01-19T20:46:48.705Z,95735.66
2023-01-19T20:49:19.752Z,95782.72
2023-01-19T20:51:48.309Z,95777.66
2023-01-19T20:54:19.662Z,95774.41
2023-01-19T20:56:48.170Z,95750.69
2023-01-19T20:59:16.389Z,95761.25
2023-01-19T21:01:45.664Z,95691.03
2023-01-19T21:04:18.184Z,95761.41
2023-01-19T21:06:48.343Z,95756.56
2023-01-19T21:09:18.462Z,95797.84
2023-01-19T21:11:46.648Z,95754.88
2023-01-19T21:14:15.010Z,95772.28
2023-01-19T21:16:43.529Z,95784.59
2023-01-19T21:19:11.944Z,95792.69
2023-01-19T21:21:41.624Z,95749.50
2023-01-19T21:24:11.720Z,95810.69
2023-01-19T21:26:41.689Z,95779.34
2023-01-19T21:29:13.196Z,95816.69
2023-01-19T21:31:41.814Z,95759.22
2023-01-19T21:34:10.641Z,95709.88
2023-01-19T21:36:38.826Z,95787.06
2023-01-19T21:39:09.064Z,95743.72
2023-01-19T21:41:39.739Z,95786.81
2023-01-19T21:44:08.132Z,95797.06
2023-01-19T21:46:36.309Z,95829.59
2023-01-19T21:49:06.307Z,95780.88
2023-01-19T21:51:37.347Z,95822.78
2023-01-19T21:54:08.377Z,95805.63
2023-01-19T21:56:37.984Z,95726.94
2023-01-19T21:59:07.484Z,95792.72
2023-01-19T22:01:36.544Z,95782.50
2023-01-19T22:04:04.887Z,95812.44
2023-01-19T22:06:33.095Z,95798.03
2023-01-19T22:09:01.688Z,95779.59
2023-01-19T22:11:31.311Z,95833.00
2023-01-19T22:14:00.498Z,95833.84
2023-01-19T22:16:30.437Z,95814.09
2023-01-19T22:19:02.096Z,95857.34
2023-01-19T22:21:35.019Z,95806.81
2023-01-19T22:24:04.854Z,95805.88
2023-01-19T22:26:36.830Z,95829.50
2023-01-19T22:29:10.975Z,95808.00
2023-01-19T22:31:40.083Z,95813.91
2023-01-19T22:34:11.803Z,95799.63
2023-01-19T22:36:40.151Z,95803.59
2023-01-19T22:39:11.614Z,95861.53
2023-01-19T22:41:43.936Z,95845.44
2023-01-19T22:44:16.025Z,95815.97
2023-01-19T22:46:44.833Z,95745.28
2023-01-19T22:49:15.706Z,95818.59
2023-01-19T22:51:44.321Z,95813.88
2023-01-19T22:54:12.760Z,95832.91
2023-01-19T22:56:43.348Z,95803.56
2023-01-19T22:59:11.552Z,95820.66
2023-01-19T23:01:42.411Z,95813.88
2023-01-19T23:04:14.649Z,95812.72
2023-01-19T23:06:52.213Z,95792.25
2023-01-19T23:09:20.724Z,95810.84
2023-01-19T23:11:51.209Z,95864.47
2023-01-19T23:14:21.903Z,95801.06
2023-01-19T23:16:50.260Z,95834.75
2023-01-19T23:19:19.297Z,95834.75
2023-01-19T23:21:47.572Z,95819.25
2023-01-19T23:24:15.698Z,95832.28
2023-01-19T23:26:43.855Z,95829.81
2023-01-19T23:29:15.936Z,95853.81
2023-01-19T23:31:47.167Z,95823.41
2023-01-19T23:34:15.735Z,95809.16
2023-01-19T23:36:44.693Z,95838.72
2023-01-19T23:39:17.176Z,95849.41
2023-01-19T23:41:45.718Z,95838.34
2023-01-19T23:44:15.658Z,95836.59
2023-01-19T23:46:44.848Z,95809.00
2023-01-19T23:49:13.160Z,95803.25
2023-01-19T23:51:42.061Z,95758.38
2023-01-19T23:54:12.196Z,95843.59
2023-01-19T23:56:42.594Z,95809.84
2023-01-19T23:59:14.843Z,95818.81
